Time;durP1;ratioP1;P1;durP2;ratioP2;P2;SDS_P1;SDS_P2;PMS_P1;PMS_P2;Temp;Humidity;BMP_temperature;BMP_pressure;BME280_temperature;BME280_humidity;BME280_pressure;Samples;Min_cycle;Max_cycle;Signal;HPM_P1;HPM_P2
2023/11/26 00:01:37;;;;;;;14.23;7.18;;;77.10;2227.20;;;;;;5069555;28;20067;-62
2023/11/26 00:04:03;;;;;;;9.60;6.22;;;77.00;2227.20;;;;;;5069340;28;20056;-62
2023/11/26 00:06:29;;;;;;;10.90;5.95;;;76.90;2227.20;;;;;;5069716;28;20499;-57
2023/11/26 00:08:55;;;;;;;8.20;5.68;;;77.00;2227.20;;;;;;5069090;28;20119;-59
2023/11/26 00:11:22;;;;;;;6.25;5.00;;;77.00;2227.20;;;;;;5069448;28;20091;-58
2023/11/26 00:13:47;;;;;;;9.23;6.53;;;77.10;2227.20;;;;;;5069456;28;20041;-57
2023/11/26 00:16:14;;;;;;;9.85;5.95;;;77.20;2227.20;;;;;;5069413;28;20086;-59
2023/11/26 00:18:40;;;;;;;8.27;5.18;;;77.20;2227.20;;;;;;5069427;28;20429;-59
2023/11/26 00:21:06;;;;;;;9.68;6.28;;;77.20;2227.20;;;;;;5069472;28;20028;-57
2023/11/26 00:23:31;;;;;;;10.38;6.70;;;77.20;2227.20;;;;;;5069253;28;20442;-64
2023/11/26 00:25:57;;;;;;;9.68;5.45;;;77.20;2227.20;;;;;;5069551;28;20064;-59
2023/11/26 00:28:23;;;;;;;10.07;6.85;;;77.10;2227.20;;;;;;5069127;28;20032;-60
2023/11/26 00:30:49;;;;;;;23.67;12.93;;;77.10;2227.20;;;;;;5069518;28;20067;-59
2023/11/26 00:33:18;;;;;;;347.30;186.20;;;77.10;2227.20;;;;;;5069555;28;20107;-60
2023/11/26 00:35:46;;;;;;;14.77;8.65;;;77.30;2227.20;;;;;;5069062;28;20029;-61
2023/11/26 00:38:11;;;;;;;12.07;8.45;;;77.20;2227.20;;;;;;5069125;28;20024;-60
2023/11/26 00:40:38;;;;;;;11.07;6.70;;;77.20;2227.20;;;;;;5069345;28;20371;-60
2023/11/26 00:43:04;;;;;;;10.90;5.95;;;77.10;2227.20;;;;;;5068902;28;20032;-61
2023/11/26 00:45:29;;;;;;;10.00;6.32;;;77.20;2227.20;;;;;;5069257;28;20031;-62
2023/11/26 00:47:57;;;;;;;7.75;5.78;;;77.10;2227.20;;;;;;5068877;28;20024;-61
2023/11/26 00:50:23;;;;;;;6.95;4.93;;;77.10;2227.20;;;;;;5069092;28;20024;-62
2023/11/26 00:52:49;;;;;;;9.63;5.60;;;76.90;2227.20;;;;;;5069164;28;20024;-61
2023/11/26 00:55:15;;;;;;;8.40;5.22;;;77.00;2227.20;;;;;;5068929;28;20406;-62
2023/11/26 00:57:42;;;;;;;8.55;4.95;;;77.00;2227.20;;;;;;5069192;28;20029;-64
2023/11/26 01:00:12;;;;;;;7.95;5.55;;;76.90;2227.20;;;;;;5068511;28;20029;-63
2023/11/26 01:02:38;;;;;;;7.95;4.78;;;76.90;2227.20;;;;;;5071854;28;20028;-62
2023/11/26 01:05:05;;;;;;;6.20;4.63;;;77.00;2227.20;;;;;;5072723;28;20460;-63
2023/11/26 01:07:30;;;;;;;13.23;7.95;;;77.00;2227.20;;;;;;5073242;28;20106;-62
2023/11/26 01:10:00;;;;;;;8.40;4.65;;;77.00;2227.20;;;;;;5072693;28;20067;-59
2023/11/26 01:12:27;;;;;;;8.27;4.50;;;77.20;2227.20;;;;;;5072749;28;20044;-62
2023/11/26 01:14:53;;;;;;;10.02;5.57;;;77.00;2227.20;;;;;;5071832;28;20037;-59
2023/11/26 01:17:18;;;;;;;6.60;4.20;;;77.20;2227.20;;;;;;5063915;28;20060;-59
2023/11/26 01:19:44;;;;;;;7.63;4.53;;;77.10;2227.20;;;;;;5060837;28;20103;-59
2023/11/26 01:22:10;;;;;;;7.57;4.95;;;77.10;2227.20;;;;;;5062988;28;20025;-61
2023/11/26 01:24:36;;;;;;;9.55;5.80;;;77.10;2227.20;;;;;;5061820;28;20025;-61
2023/11/26 01:27:04;;;;;;;8.95;5.30;;;77.10;2227.20;;;;;;5060978;28;20016;-60
2023/11/26 01:29:29;;;;;;;10.35;5.55;;;77.00;2227.20;;;;;;5061069;28;20021;-62
2023/11/26 01:31:55;;;;;;;5.22;4.20;;;77.00;2227.20;;;;;;5043435;28;20033;-60
2023/11/26 01:34:22;;;;;;;7.30;4.43;;;77.00;2227.20;;;;;;5062591;28;20448;-61
2023/11/26 01:36:48;;;;;;;9.95;4.95;;;77.00;2227.20;;;;;;5061139;28;20410;-58
2023/11/26 01:39:14;;;;;;;6.47;4.40;;;77.00;2227.20;;;;;;5061716;28;20159;-58
2023/11/26 01:41:40;;;;;;;9.02;5.32;;;77.00;2227.20;;;;;;5062382;28;20033;-59
2023/11/26 01:44:06;;;;;;;8.10;6.28;;;77.00;2227.20;;;;;;5060434;28;20412;-59
2023/11/26 01:46:32;;;;;;;8.05;4.72;;;77.00;2227.20;;;;;;5062146;28;20029;-59
2023/11/26 01:49:01;;;;;;;7.13;4.55;;;77.00;2227.20;;;;;;5061757;28;20025;-59
2023/11/26 01:51:30;;;;;;;7.20;4.35;;;76.90;2227.20;;;;;;5060789;28;20048;-58
2023/11/26 01:53:56;;;;;;;8.82;5.97;;;76.90;2227.20;;;;;;5061154;28;20078;-58
2023/11/26 01:56:23;;;;;;;7.88;4.65;;;76.90;2227.20;;;;;;5062334;28;20399;-59
2023/11/26 01:58:49;;;;;;;8.73;5.10;;;76.90;2227.20;;;;;;5062512;28;20050;-61
2023/11/26 02:01:20;;;;;;;8.27;5.55;;;77.10;2227.20;;;;;;5061005;28;20037;-59
2023/11/26 02:03:46;;;;;;;7.78;4.40;;;77.00;2227.20;;;;;;5059794;28;20438;-59
2023/11/26 02:06:13;;;;;;;8.23;5.47;;;76.90;2227.20;;;;;;5061606;28;20028;-59
2023/11/26 02:08:39;;;;;;;7.28;4.60;;;76.90;2227.20;;;;;;5061640;28;20070;-61
2023/11/26 02:11:05;;;;;;;6.80;4.22;;;76.90;2227.20;;;;;;5059648;28;20074;-58
2023/11/26 02:13:42;;;;;;;8.05;4.47;;;76.90;2227.20;;;;;;5060795;28;20166;-62
2023/11/26 02:16:08;;;;;;;9.50;4.82;;;76.80;2227.20;;;;;;5061977;28;20479;-61
2023/11/26 02:18:34;;;;;;;7.38;5.20;;;52.10;2227.20;;;;;;5060847;28;20028;-59
2023/11/26 02:21:00;;;;;;;9.27;5.25;;;76.80;2227.20;;;;;;5060744;28;20024;-58
2023/11/26 02:23:25;;;;;;;9.18;5.75;;;76.90;2227.20;;;;;;5061605;28;20040;-60
2023/11/26 02:25:51;;;;;;;6.70;5.28;;;76.80;2227.20;;;;;;5060412;28;20009;-58
2023/11/26 02:28:17;;;;;;;7.05;4.22;;;76.90;2227.20;;;;;;5060754;28;20025;-59
2023/11/26 02:30:43;;;;;;;7.05;4.40;;;76.80;2227.20;;;;;;5061601;28;20025;-59
2023/11/26 02:33:08;;;;;;;8.25;4.13;;;76.90;2227.20;;;;;;5059640;28;20024;-57
2023/11/26 02:35:34;;;;;;;9.52;4.55;;;76.90;2227.20;;;;;;5042477;28;20037;-58
2023/11/26 02:38:02;;;;;;;7.10;4.00;;;76.90;2227.20;;;;;;5061219;28;20063;-60
2023/11/26 02:40:29;;;;;;;5.78;4.20;;;76.90;2227.20;;;;;;5059348;28;20051;-61
2023/11/26 02:42:57;;;;;;;8.60;4.40;;;76.90;2227.20;;;;;;5060517;28;20028;-59
2023/11/26 02:45:23;;;;;;;7.82;4.35;;;76.80;2227.20;;;;;;5061442;28;20024;-60
2023/11/26 02:47:49;;;;;;;7.78;4.18;;;76.80;2227.20;;;;;;5059522;28;20440;-58
2023/11/26 02:50:14;;;;;;;6.88;4.20;;;52.00;2227.20;;;;;;5060430;28;20086;-61
2023/11/26 02:52:40;;;;;;;7.28;3.92;;;51.80;2227.20;;;;;;5061207;28;20021;-59
2023/11/26 02:55:07;;;;;;;8.32;4.22;;;51.80;2227.20;;;;;;5058872;28;20033;-57
2023/11/26 02:57:32;;;;;;;8.70;5.55;;;51.80;2227.20;;;;;;5060655;28;20021;-59
2023/11/26 03:00:00;;;;;;;6.75;3.83;;;51.80;2227.20;;;;;;5060440;28;20033;-58
2023/11/26 03:02:30;;;;;;;8.18;5.63;;;51.80;2227.20;;;;;;5058955;28;20020;-59
2023/11/26 03:05:05;;;;;;;7.80;3.67;;;51.80;2227.20;;;;;;5059944;28;20016;-59
2023/11/26 03:07:32;;;;;;;9.63;4.57;;;51.80;2227.20;;;;;;5059490;28;20070;-58
2023/11/26 03:15:26;;;;;;;15.13;7.75;;;51.90;2227.20;;;;;;5021104;28;20498;-59
2023/11/26 03:17:51;;;;;;;8.15;4.60;;;51.90;2227.20;;;;;;5019575;28;20026;-59
2023/11/26 03:20:17;;;;;;;5.45;3.80;;;52.00;2227.20;;;;;;5020045;28;20441;-59
2023/11/26 03:22:43;;;;;;;7.65;5.25;;;52.00;2227.20;;;;;;5021006;28;20528;-62
2023/11/26 03:25:09;;;;;;;91.95;51.05;;;52.10;2227.20;;;;;;5020648;28;20034;-60
2023/11/26 03:27:35;;;;;;;7.90;5.53;;;52.00;2227.20;;;;;;5019574;28;20153;-58
2023/11/26 03:30:00;;;;;;;8.63;5.30;;;52.10;2227.20;;;;;;5017810;28;20048;-59
2023/11/26 03:32:28;;;;;;;9.18;4.40;;;52.10;2227.20;;;;;;5020686;28;20025;-59
2023/11/26 03:34:54;;;;;;;8.88;6.28;;;52.00;2227.20;;;;;;5019430;28;20034;-60
2023/11/26 03:37:21;;;;;;;14.30;8.50;;;52.10;2227.20;;;;;;5019373;28;20467;-59
2023/11/26 03:39:47;;;;;;;5.68;3.20;;;52.10;2227.20;;;;;;5020536;28;20028;-58
2023/11/26 03:42:14;;;;;;;9.80;4.55;;;52.10;2227.20;;;;;;5019027;28;20109;-59
2023/11/26 03:44:43;;;;;;;6.22;3.60;;;51.90;2227.20;;;;;;5029887;28;20460;-59
2023/11/26 03:47:09;;;;;;;10.07;4.97;;;52.10;2227.20;;;;;;5030050;28;20029;-59
2023/11/26 03:49:35;;;;;;;7.88;3.97;;;51.90;2227.20;;;;;;5029803;28;20511;-59
2023/11/26 03:52:03;;;;;;;6.95;4.35;;;51.90;2227.20;;;;;;5029952;28;20101;-59
2023/11/26 03:54:28;;;;;;;7.30;4.75;;;51.90;2227.20;;;;;;5027866;28;20036;-59
2023/11/26 03:56:54;;;;;;;5.80;4.25;;;52.00;2227.20;;;;;;5029578;28;20033;-59
2023/11/26 03:59:21;;;;;;;6.25;3.35;;;52.00;2227.20;;;;;;5029922;28;20091;-59
2023/11/26 04:01:47;;;;;;;4.63;3.25;;;51.90;2227.20;;;;;;5029940;28;20113;-60
2023/11/26 04:04:13;;;;;;;7.43;3.80;;;51.90;2227.20;;;;;;5029740;28;20053;-59
2023/11/26 04:06:38;;;;;;;8.80;4.95;;;51.80;2227.20;;;;;;5029789;28;20409;-59
2023/11/26 04:09:04;;;;;;;7.70;3.80;;;51.90;2227.20;;;;;;5029311;28;20485;-60
2023/11/26 04:11:30;;;;;;;8.15;3.58;;;52.00;2227.20;;;;;;5054385;28;20070;-60
2023/11/26 04:13:56;;;;;;;6.70;3.50;;;52.00;2227.20;;;;;;5069074;28;20417;-61
2023/11/26 04:16:21;;;;;;;4.65;3.28;;;52.10;2227.20;;;;;;5051198;28;20039;-59
2023/11/26 04:18:49;;;;;;;6.63;3.42;;;51.90;2227.20;;;;;;5069612;28;20131;-58
2023/11/26 04:21:15;;;;;;;7.60;4.05;;;52.00;2227.20;;;;;;5069335;28;20033;-59
2023/11/26 04:23:41;;;;;;;7.65;3.58;;;51.90;2227.20;;;;;;5069357;28;20031;-59
2023/11/26 04:26:08;;;;;;;12.30;5.95;;;52.00;2227.20;;;;;;5069358;28;20040;-60
2023/11/26 04:28:35;;;;;;;6.85;3.50;;;51.90;2227.20;;;;;;5069151;28;20443;-59
2023/11/26 04:31:02;;;;;;;7.18;4.10;;;52.00;2227.20;;;;;;5069396;28;20413;-59
2023/11/26 04:33:28;;;;;;;6.68;2.97;;;51.80;2227.20;;;;;;5069308;28;20024;-59
2023/11/26 04:35:54;;;;;;;5.30;3.13;;;51.80;2227.20;;;;;;5068926;28;20725;-59
2023/11/26 04:38:20;;;;;;;13.95;4.18;;;51.80;2227.20;;;;;;5073442;28;20021;-62
2023/11/26 04:40:46;;;;;;;6.85;3.47;;;51.90;2227.20;;;;;;5073225;28;20033;-59
2023/11/26 04:43:12;;;;;;;8.32;3.75;;;51.80;2227.20;;;;;;5073057;28;20028;-61
2023/11/26 04:45:37;;;;;;;7.60;3.50;;;51.80;2227.20;;;;;;5073262;28;20028;-60
2023/11/26 04:48:03;;;;;;;8.82;4.25;;;51.80;2227.20;;;;;;5073046;28;20025;-59
2023/11/26 04:50:29;;;;;;;8.40;5.18;;;51.80;2227.20;;;;;;5073122;28;20036;-60
2023/11/26 04:52:55;;;;;;;7.15;3.05;;;51.70;2227.20;;;;;;5073040;28;20020;-61
2023/11/26 04:55:21;;;;;;;6.25;3.70;;;51.70;2227.20;;;;;;5073253;28;20436;-59
2023/11/26 04:57:47;;;;;;;6.82;3.80;;;51.70;2227.20;;;;;;5072995;28;20463;-59
2023/11/26 05:00:15;;;;;;;10.77;5.88;;;51.60;2227.20;;;;;;5072792;28;20111;-59
2023/11/26 05:02:42;;;;;;;5.80;3.40;;;51.50;2227.20;;;;;;5072840;28;20467;-60
2023/11/26 05:05:09;;;;;;;10.65;3.55;;;51.50;2227.20;;;;;;5072775;28;20047;-60
2023/11/26 05:07:38;;;;;;;5.50;3.00;;;51.40;2227.20;;;;;;5072776;28;20385;-60
2023/11/26 05:10:09;;;;;;;6.43;3.80;;;51.30;2227.20;;;;;;5072430;28;20021;-62
2023/11/26 05:12:35;;;;;;;17.77;7.43;;;51.30;2227.20;;;;;;5072613;28;20491;-59
2023/11/26 05:15:01;;;;;;;5.53;3.60;;;51.30;2227.20;;;;;;5072579;28;20474;-61
2023/11/26 05:17:28;;;;;;;8.65;4.60;;;51.30;2227.20;;;;;;5072901;28;20098;-59
2023/11/26 05:19:54;;;;;;;5.90;3.08;;;51.30;2227.20;;;;;;5072472;28;20059;-59
2023/11/26 05:22:20;;;;;;;6.75;3.15;;;51.30;2227.20;;;;;;5072530;28;20425;-58
2023/11/26 05:24:46;;;;;;;4.93;3.08;;;51.40;2227.20;;;;;;5072283;28;20028;-59
2023/11/26 05:27:12;;;;;;;6.88;3.95;;;51.40;2227.20;;;;;;5053947;28;20033;-59
2023/11/26 05:29:38;;;;;;;13.20;6.15;;;51.40;2227.20;;;;;;5072656;28;20036;-61
2023/11/26 05:32:04;;;;;;;9.75;3.78;;;51.40;2227.20;;;;;;5072330;28;20060;-60
2023/11/26 05:34:30;;;;;;;6.13;3.40;;;51.50;2227.20;;;;;;5072368;28;20036;-59
2023/11/26 05:36:56;;;;;;;5.95;4.45;;;51.50;2227.20;;;;;;5072156;28;20116;-62
2023/11/26 05:39:22;;;;;;;17.58;7.63;;;51.50;2227.20;;;;;;5072069;28;20029;-61
2023/11/26 05:41:48;;;;;;;13.38;5.88;;;51.40;2227.20;;;;;;5072085;28;20032;-62
2023/11/26 05:44:13;;;;;;;7.55;3.60;;;51.60;2227.20;;;;;;5071802;28;20025;-60
2023/11/26 05:46:43;;;;;;;9.55;4.60;;;51.60;2227.20;;;;;;5072152;28;20371;-59
2023/11/26 05:49:09;;;;;;;6.68;3.70;;;51.70;2227.20;;;;;;5072061;28;20024;-59
2023/11/26 05:51:35;;;;;;;8.48;3.75;;;51.70;2227.20;;;;;;5071848;28;20017;-59
2023/11/26 05:54:02;;;;;;;4.97;3.42;;;51.90;2227.20;;;;;;5071984;28;20035;-59
2023/11/26 05:56:28;;;;;;;6.97;3.85;;;51.80;2227.20;;;;;;5071962;28;20033;-59
2023/11/26 05:58:55;;;;;;;7.72;3.85;;;51.90;2227.20;;;;;;5071365;28;20028;-59
2023/11/26 06:01:24;;;;;;;8.48;4.30;;;52.00;2227.20;;;;;;5072203;28;20028;-61
2023/11/26 06:03:50;;;;;;;13.27;7.03;;;52.10;2227.20;;;;;;5071759;28;20478;-62
2023/11/26 06:06:16;;;;;;;15.25;6.15;;;77.00;2227.20;;;;;;5071604;28;20489;-59
2023/11/26 06:08:42;;;;;;;26.10;12.07;;;76.90;2227.20;;;;;;5071707;28;20020;-59
2023/11/26 06:11:08;;;;;;;13.38;6.97;;;76.80;2227.20;;;;;;5071532;28;20051;-62
2023/11/26 06:13:34;;;;;;;12.25;7.65;;;76.90;2227.20;;;;;;5071492;28;20466;-62
2023/11/26 06:15:59;;;;;;;17.33;9.25;;;76.80;2227.20;;;;;;5071546;28;20044;-62
2023/11/26 06:18:25;;;;;;;13.77;5.43;;;76.90;2227.20;;;;;;5071291;28;20059;-61
2023/11/26 06:20:52;;;;;;;57.88;27.98;;;77.00;2227.20;;;;;;5071696;28;20032;-61
2023/11/26 06:23:17;;;;;;;31.35;15.65;;;76.90;2227.20;;;;;;5071390;28;20024;-62
2023/11/26 06:25:43;;;;;;;15.32;7.70;;;77.00;2227.20;;;;;;5071265;28;20028;-62
2023/11/26 06:28:10;;;;;;;14.35;8.00;;;77.10;2227.20;;;;;;5071821;28;20027;-60
2023/11/26 06:30:37;;;;;;;13.25;5.53;;;77.10;2227.20;;;;;;5071437;28;20100;-62
2023/11/26 06:33:03;;;;;;;9.55;5.30;;;77.10;2227.20;;;;;;5071085;28;20184;-62
2023/11/26 06:35:29;;;;;;;6.40;4.90;;;77.20;2227.20;;;;;;5071297;28;20119;-61
2023/11/26 06:37:54;;;;;;;11.10;6.05;;;77.20;2227.20;;;;;;5070964;28;20554;-60
2023/11/26 06:40:21;;;;;;;7.32;4.60;;;77.40;2227.20;;;;;;5071261;28;20154;-59
2023/11/26 06:42:46;;;;;;;10.90;5.13;;;77.50;2227.20;;;;;;5071112;28;20487;-62
2023/11/26 06:45:12;;;;;;;7.38;3.47;;;77.50;2227.20;;;;;;5070789;28;20033;-61
2023/11/26 06:47:38;;;;;;;7.40;5.00;;;77.60;2227.20;;;;;;5070866;28;20490;-60
2023/11/26 06:50:05;;;;;;;14.55;10.30;;;77.60;2227.20;;;;;;5070765;28;20483;-61
2023/11/26 06:52:33;;;;;;;19.33;13.40;;;77.60;2227.20;;;;;;5070789;28;20025;-60
2023/11/26 06:54:59;;;;;;;8.45;5.38;;;77.60;2227.20;;;;;;5070556;28;20040;-60
2023/11/26 06:57:25;;;;;;;9.18;4.80;;;77.60;2227.20;;;;;;5070704;28;20095;-60
2023/11/26 06:59:51;;;;;;;14.80;8.32;;;77.60;2227.20;;;;;;5070138;28;20025;-59
2023/11/26 07:02:16;;;;;;;8.07;4.72;;;77.50;2227.20;;;;;;5070682;28;20031;-60
2023/11/26 07:04:42;;;;;;;12.43;9.32;;;77.60;2227.20;;;;;;5070267;28;20028;-61
2023/11/26 07:07:08;;;;;;;9.00;4.72;;;77.50;2227.20;;;;;;5070578;28;20032;-60
2023/11/26 07:09:34;;;;;;;9.23;4.97;;;77.50;2227.20;;;;;;5070296;28;20081;-59
2023/11/26 07:12:00;;;;;;;9.95;4.68;;;77.40;2227.20;;;;;;5070216;28;20655;-60
2023/11/26 07:14:25;;;;;;;8.50;4.75;;;77.50;2227.20;;;;;;5069825;28;20041;-61
2023/11/26 07:16:54;;;;;;;10.88;5.90;;;77.50;2227.20;;;;;;5070288;28;20104;-58
2023/11/26 07:19:20;;;;;;;9.55;6.75;;;77.60;2227.20;;;;;;5070481;28;20498;-61
2023/11/26 07:21:46;;;;;;;13.40;8.98;;;77.70;2227.20;;;;;;5052212;28;20025;-59
2023/11/26 07:24:12;;;;;;;48.97;29.98;;;77.70;2227.20;;;;;;5069895;28;20099;-59
2023/11/26 07:26:38;;;;;;;17.55;12.43;;;77.70;2227.20;;;;;;5070337;28;20025;-59
2023/11/26 07:29:04;;;;;;;12.73;5.30;;;102.40;2227.20;;;;;;5069737;28;20060;-60
2023/11/26 07:31:30;;;;;;;26.95;15.43;;;102.40;2227.20;;;;;;5070161;28;20021;-60
2023/11/26 07:33:56;;;;;;;15.75;9.63;;;102.40;2227.20;;;;;;5069986;28;20059;-61
2023/11/26 07:36:25;;;;;;;6.90;3.92;;;102.60;2227.20;;;;;;5069984;28;20027;-59
2023/11/26 07:39:03;;;;;;;37.30;17.55;;;102.50;2227.20;;;;;;5070066;28;20025;-61
2023/11/26 07:41:29;;;;;;;9.88;6.03;;;102.50;2227.20;;;;;;5069884;28;20043;-61
2023/11/26 07:43:55;;;;;;;194.43;101.72;;;102.70;2227.20;;;;;;5069493;28;20028;-60
2023/11/26 07:46:21;;;;;;;22.63;11.90;;;102.90;2227.20;;;;;;5070201;28;20032;-59
2023/11/26 07:48:47;;;;;;;118.03;69.97;;;102.90;2227.20;;;;;;5069727;28;20119;-61
2023/11/26 07:51:13;;;;;;;19.45;15.32;;;102.80;2227.20;;;;;;5069732;28;20109;-61
2023/11/26 07:53:39;;;;;;;13.90;6.90;;;103.00;2227.20;;;;;;5069760;28;20020;-60
2023/11/26 07:56:06;;;;;;;4.93;3.63;;;102.90;2227.20;;;;;;5069605;28;20131;-60
2023/11/26 07:58:33;;;;;;;6.70;4.28;;;102.80;2227.20;;;;;;5069620;28;20491;-59
2023/11/26 08:01:02;;;;;;;6.45;4.40;;;102.70;2227.20;;;;;;5069723;28;20386;-60
2023/11/26 08:03:31;;;;;;;6.18;4.65;;;102.50;2227.20;;;;;;5069642;28;20041;-60
2023/11/26 08:06:00;;;;;;;10.95;6.78;;;102.50;2227.20;;;;;;5069655;28;20032;-60
2023/11/26 08:08:26;;;;;;;11.60;8.02;;;102.60;2227.20;;;;;;5069466;28;20023;-60
2023/11/26 08:10:52;;;;;;;10.95;8.75;;;102.50;2227.20;;;;;;5068376;28;20047;-59
2023/11/26 08:13:27;;;;;;;13.57;7.93;;;102.50;2227.20;;;;;;5069536;28;20398;-61
2023/11/26 08:15:57;;;;;;;15.30;9.27;;;77.60;2227.20;;;;;;5069364;28;20033;-61
2023/11/26 08:18:24;;;;;;;24.60;15.98;;;77.40;2227.20;;;;;;5069807;28;20058;-61
2023/11/26 08:20:52;;;;;;;16.65;10.68;;;77.60;2227.20;;;;;;5069640;28;20032;-59
2023/11/26 08:23:18;;;;;;;11.07;8.13;;;77.70;2227.20;;;;;;5069377;28;20016;-60
2023/11/26 08:25:44;;;;;;;8.63;6.03;;;77.70;2227.20;;;;;;5069096;28;20025;-61
2023/11/26 08:28:11;;;;;;;57.22;44.95;;;77.60;2227.20;;;;;;5069218;28;20028;-59
2023/11/26 08:30:47;;;;;;;10.82;7.45;;;77.40;2227.20;;;;;;5069069;28;20108;-60
2023/11/26 08:33:17;;;;;;;20.77;17.60;;;77.40;2227.20;;;;;;5069280;28;20024;-59
2023/11/26 08:35:42;;;;;;;16.90;11.07;;;77.30;2227.20;;;;;;5068970;28;20043;-59
2023/11/26 08:38:10;;;;;;;12.95;8.10;;;77.40;2227.20;;;;;;5069234;28;20025;-61
2023/11/26 08:40:38;;;;;;;14.73;8.88;;;77.50;2227.20;;;;;;5069015;28;20024;-61
2023/11/26 08:43:14;;;;;;;10.85;8.45;;;77.40;2227.20;;;;;;5069074;28;20021;-61
2023/11/26 08:45:43;;;;;;;9.85;5.28;;;77.60;2227.20;;;;;;5069021;28;20032;-60
2023/11/26 08:48:16;;;;;;;12.70;8.98;;;77.60;2227.20;;;;;;5069234;28;20021;-61
2023/11/26 08:50:42;;;;;;;;;;;77.60;2227.20;;;;;;5069649;28;20036;-61
2023/11/26 08:53:09;;;;;;;7.85;5.32;;;77.40;2227.20;;;;;;5069188;28;19908;-61
2023/11/26 08:55:36;;;;;;;7.93;6.57;;;77.30;2227.20;;;;;;5068204;28;20425;-58
2023/11/26 08:58:02;;;;;;;8.10;5.68;;;77.30;2227.20;;;;;;5068648;28;20463;-59
2023/11/26 09:00:28;;;;;;;11.10;6.55;;;77.20;2227.20;;;;;;5068822;28;20024;-59
2023/11/26 09:02:54;;;;;;;8.55;5.25;;;77.20;2227.20;;;;;;5068226;28;20032;-59
2023/11/26 09:05:21;;;;;;;15.13;10.45;;;77.30;2227.20;;;;;;5068396;28;20025;-60
2023/11/26 09:07:47;;;;;;;27.23;19.17;;;77.30;2227.20;;;;;;5068362;28;20082;-59
2023/11/26 09:10:14;;;;;;;10.45;8.18;;;77.40;2227.20;;;;;;5063329;28;20464;-60
2023/11/26 09:12:40;;;;;;;8.38;5.45;;;77.40;2227.20;;;;;;5066365;28;20119;-60
2023/11/26 09:15:07;;;;;;;14.77;10.43;;;77.40;2227.20;;;;;;5058115;28;20045;-62
2023/11/26 09:17:36;;;;;;;9.65;7.60;;;77.60;2227.20;;;;;;5049150;28;20025;-59
2023/11/26 09:20:03;;;;;;;8.60;6.18;;;77.60;2227.20;;;;;;5056355;28;20029;-59
2023/11/26 09:22:30;;;;;;;9.25;6.55;;;77.60;2227.20;;;;;;5060227;28;20104;-61
2023/11/26 09:24:56;;;;;;;14.30;9.20;;;77.60;2227.20;;;;;;5062316;28;20448;-59
2023/11/26 09:27:23;;;;;;;7.40;5.47;;;77.70;2227.20;;;;;;5060791;28;20036;-59
2023/11/26 09:29:49;;;;;;;13.48;8.90;;;77.70;2227.20;;;;;;5062424;28;20115;-59
2023/11/26 09:32:15;;;;;;;12.05;7.65;;;102.40;2227.20;;;;;;5061290;28;20456;-58
2023/11/26 09:34:40;;;;;;;11.23;5.82;;;102.40;2227.20;;;;;;5060641;28;20052;-62
2023/11/26 09:37:08;;;;;;;9.20;6.00;;;102.60;2227.20;;;;;;5063130;28;20448;-61
2023/11/26 09:39:34;;;;;;;7.88;5.65;;;102.60;2227.20;;;;;;5063228;28;20080;-59
2023/11/26 09:42:04;;;;;;;11.65;6.72;;;102.60;2227.20;;;;;;5067120;28;20471;-59
2023/11/26 09:44:30;;;;;;;9.88;6.63;;;102.70;2227.20;;;;;;5060702;28;20032;-58
2023/11/26 09:46:57;;;;;;;10.40;7.65;;;102.70;2227.20;;;;;;5061754;28;20025;-60
2023/11/26 09:49:23;;;;;;;12.43;7.18;;;102.50;2227.20;;;;;;5059758;28;20455;-58
2023/11/26 09:51:58;;;;;;;10.05;8.02;;;102.50;2227.20;;;;;;5051272;28;20029;-59
2023/11/26 09:54:24;;;;;;;10.57;7.22;;;102.40;2227.20;;;;;;5051680;28;20033;-59
2023/11/26 09:56:59;;;;;;;14.23;9.68;;;77.70;2227.20;;;;;;5051968;28;20432;-58
2023/11/26 09:59:29;;;;;;;8.30;5.68;;;102.40;2227.20;;;;;;5051084;28;20025;-58
2023/11/26 10:01:55;;;;;;;8.90;6.80;;;102.40;2227.20;;;;;;5051360;28;20033;-57
2023/11/26 10:04:22;;;;;;;9.57;7.90;;;102.50;2227.20;;;;;;5055702;28;20029;-57
2023/11/26 10:06:55;;;;;;;16.67;11.30;;;102.60;2227.20;;;;;;5060818;28;20051;-59
2023/11/26 10:09:22;;;;;;;20.70;13.32;;;102.80;2227.20;;;;;;5043919;28;20032;-58
2023/11/26 10:11:49;;;;;;;10.20;6.35;;;102.80;2227.20;;;;;;5059602;28;20045;-57
2023/11/26 10:14:15;;;;;;;9.13;6.80;;;102.80;2227.20;;;;;;5060775;28;20036;-58
2023/11/26 10:16:41;;;;;;;12.27;8.23;;;102.90;2227.20;;;;;;5059964;28;20058;-58
2023/11/26 10:19:20;;;;;;;19.67;16.27;;;102.90;2227.20;;;;;;5060518;28;20021;-61
2023/11/26 10:21:53;;;;;;;15.20;10.13;;;102.90;2227.20;;;;;;5060559;28;20032;-56
2023/11/26 10:24:20;;;;;;;38.55;21.27;;;103.00;2227.20;;;;;;5063412;28;20036;-61
2023/11/26 10:26:46;;;;;;;25.42;15.52;;;102.90;2227.20;;;;;;5060864;28;20039;-60
2023/11/26 10:29:12;;;;;;;25.27;16.33;;;102.80;2227.20;;;;;;5061544;28;20476;-57
2023/11/26 10:31:39;;;;;;;11.07;8.43;;;102.80;2227.20;;;;;;5062544;28;20037;-58
2023/11/26 10:34:13;;;;;;;12.75;8.43;;;102.70;2227.20;;;;;;5070264;28;20028;-59
2023/11/26 10:36:39;;;;;;;9.07;6.97;;;102.70;2227.20;;;;;;5071579;28;20086;-61
2023/11/26 10:39:09;;;;;;;14.85;9.38;;;102.70;2227.20;;;;;;5071060;28;20027;-59
2023/11/26 10:41:36;;;;;;;9.45;8.43;;;102.70;2227.20;;;;;;5071134;28;20067;-61
2023/11/26 10:44:05;;;;;;;19.13;14.07;;;102.80;2227.20;;;;;;5071200;28;20484;-61
2023/11/26 10:46:35;;;;;;;73.22;46.45;;;102.80;2227.20;;;;;;5070719;28;20056;-59
2023/11/26 10:49:27;;;;;;;35.08;17.92;;;102.90;2227.20;;;;;;5071392;28;20116;-57
2023/11/26 10:52:15;;;;;;;181.32;85.40;;;103.00;2227.20;;;;;;5063584;28;20029;-59
2023/11/26 10:54:56;;;;;;;9.52;5.88;;;103.00;2227.20;;;;;;5059302;28;20083;-58
2023/11/26 10:57:33;;;;;;;13.88;9.25;;;103.00;2227.20;;;;;;5062749;28;20021;-58
2023/11/26 11:00:02;;;;;;;14.25;9.43;;;103.00;2227.20;;;;;;5059348;28;20100;-57
2023/11/26 11:02:31;;;;;;;16.75;9.68;;;103.20;2227.20;;;;;;5062337;28;20051;-58
2023/11/26 11:05:00;;;;;;;40.67;20.45;;;128.00;2252.80;;;;;;5059554;28;20025;-59
2023/11/26 11:07:28;;;;;;;825.63;491.35;;;128.20;2252.80;;;;;;5060493;28;20046;-61
2023/11/26 11:10:22;;;;;;;310.48;137.98;;;128.40;2252.80;;;;;;5057069;28;20029;-58
2023/11/26 11:12:53;;;;;;;158.18;78.90;;;128.70;2252.80;;;;;;5060983;28;20078;-61
2023/11/26 11:15:21;;;;;;;44.22;24.60;;;128.90;2252.80;;;;;;5059486;28;20113;-61
2023/11/26 11:17:48;;;;;;;20.23;10.02;;;128.90;2252.80;;;;;;5058630;28;20024;-57
2023/11/26 11:20:14;;;;;;;79.68;36.47;;;128.80;2252.80;;;;;;5059693;28;20028;-60
2023/11/26 11:22:42;;;;;;;320.08;183.18;;;128.60;2252.80;;;;;;5061260;28;20024;-62
2023/11/26 11:25:19;;;;;;;104.93;52.05;;;128.80;2252.80;;;;;;5060994;28;20020;-59
2023/11/26 11:27:51;;;;;;;10.65;7.32;;;128.60;2252.80;;;;;;5060815;28;20021;-56
2023/11/26 11:30:31;;;;;;;16.38;10.45;;;128.50;2252.80;;;;;;5053049;28;20393;-57
2023/11/26 11:33:11;;;;;;;449.08;250.18;;;128.30;2252.80;;;;;;5050309;28;20029;-58
2023/11/26 11:35:40;;;;;;;266.83;151.10;;;128.30;2252.80;;;;;;5050242;28;20041;-61
2023/11/26 11:38:12;;;;;;;437.38;218.82;;;128.50;2252.80;;;;;;5050052;28;20024;-61
2023/11/26 11:41:08;;;;;;;59.83;32.33;;;128.50;2252.80;;;;;;5049875;28;20033;-57
2023/11/26 11:43:41;;;;;;;174.43;81.28;;;128.60;2252.80;;;;;;5060057;28;20025;-60
2023/11/26 11:46:27;;;;;;;16.80;7.20;;;128.80;2252.80;;;;;;5072649;28;20021;-60
2023/11/26 11:48:57;;;;;;;23.45;13.65;;;128.70;2252.80;;;;;;5073716;28;20094;-61
2023/11/26 11:51:30;;;;;;;69.57;40.67;;;128.70;2252.80;;;;;;5073727;28;20021;-60
2023/11/26 11:54:02;;;;;;;12.95;7.97;;;128.40;2252.80;;;;;;5073455;28;20078;-60
2023/11/26 11:56:28;;;;;;;19.70;14.27;;;128.20;2252.80;;;;;;5073516;28;20044;-61
2023/11/26 11:58:54;;;;;;;12.02;9.05;;;128.30;2252.80;;;;;;5073672;28;20082;-59
2023/11/26 12:01:21;;;;;;;20.30;12.20;;;128.40;2252.80;;;;;;5073346;28;20063;-58
2023/11/26 12:03:47;;;;;;;11.15;6.72;;;128.60;2252.80;;;;;;5073499;28;20020;-60
2023/11/26 12:06:13;;;;;;;13.15;8.35;;;153.60;2252.80;;;;;;5073169;28;20434;-57
2023/11/26 12:08:39;;;;;;;14.38;8.18;;;128.80;2252.80;;;;;;5073369;28;20062;-56
2023/11/26 12:11:10;;;;;;;368.85;198.25;;;128.60;2252.80;;;;;;5072789;28;20402;-58
2023/11/26 12:13:42;;;;;;;23.30;15.48;;;128.70;2252.80;;;;;;5073030;28;20028;-57
2023/11/26 12:16:09;;;;;;;45.90;27.30;;;128.50;2252.80;;;;;;5072837;28;20501;-60
2023/11/26 12:18:35;;;;;;;10.55;7.30;;;128.50;2252.80;;;;;;5073180;28;20465;-58
2023/11/26 12:21:03;;;;;;;16.02;9.85;;;128.50;2252.80;;;;;;5072825;28;20511;-60
2023/11/26 12:23:33;;;;;;;18.42;12.77;;;128.40;2252.80;;;;;;5073498;28;20355;-59
2023/11/26 12:25:59;;;;;;;12.13;7.90;;;103.30;2227.20;;;;;;5072725;28;20048;-58